Terminal Aerodrome Forecast
Issued by NWS Twin Cities, MN

Home | Current Version | Previous Version | Text Only | Print | Product List | Glossary Off
Versions: 1 2 3 4 5 6 7 8 9 10 11 12 13 14 15 16 17 18 19 20 21 22 23 24 25 26

000
FTUS43 KMPX 101700
TAFMSP
TAF
KMSP 101737Z 1018/1124 16009KT P6SM FEW050
     FM102100 17011KT P6SM SCT045 BKN250
     FM110500 16009KT P6SM VCSH SCT050 OVC080 PROB30 1107/1112 4SM
      TSRA OVC035CB
     FM111400 18011KT P6SM SCT050 BKN080=

USA.gov is the U.S. government's official web portal to all federal, state and local government web resources and services.